Time;durP1;ratioP1;P1;durP2;ratioP2;P2;SDS_P1;SDS_P2;PMS_P1;PMS_P2;Temp;Humidity;BMP_temperature;BMP_pressure;BME280_temperature;BME280_humidity;BME280_pressure;Samples;Min_cycle;Max_cycle;Signal;HPM_P1;HPM_P2
2021/03/20 00:01:19;;;;;;;11.50;6.23;;;-1.20;99.90;;;;;;5115701;28;20432;-78
2021/03/20 00:03:47;;;;;;;8.17;5.27;;;-1.30;99.90;;;;;;5115609;28;20439;-78
2021/03/20 00:06:14;;;;;;;6.80;5.57;;;-1.30;99.90;;;;;;5115434;28;20446;-78
2021/03/20 00:08:41;;;;;;;9.70;5.90;;;-1.30;99.90;;;;;;5115513;28;20421;-78
2021/03/20 00:11:07;;;;;;;10.23;5.73;;;-1.30;99.90;;;;;;5115402;28;20422;-78
2021/03/20 00:13:34;;;;;;;9.20;5.33;;;-1.30;99.90;;;;;;5115110;28;20427;-78
2021/03/20 00:16:01;;;;;;;8.80;4.93;;;-1.30;99.90;;;;;;5115073;28;20398;-79
2021/03/20 00:18:28;;;;;;;7.70;5.00;;;-1.20;99.90;;;;;;5115221;28;20433;-79
2021/03/20 00:20:56;;;;;;;7.37;4.73;;;-1.20;99.90;;;;;;5115285;28;20439;-79
2021/03/20 00:23:22;;;;;;;6.40;4.90;;;-1.30;99.90;;;;;;5115232;28;20435;-79
2021/03/20 00:25:49;;;;;;;8.60;5.10;;;-1.30;99.90;;;;;;5115117;28;20418;-79
2021/03/20 00:28:21;;;;;;;7.77;4.47;;;-1.30;99.90;;;;;;5115091;28;20511;-79
2021/03/20 00:30:49;;;;;;;7.60;5.03;;;-1.30;99.90;;;;;;5115154;28;20451;-79
2021/03/20 00:33:16;;;;;;;7.37;4.73;;;-1.40;99.90;;;;;;5115071;28;20442;-79
2021/03/20 00:35:42;;;;;;;7.20;5.27;;;-1.40;99.90;;;;;;5114984;28;20825;-79
2021/03/20 00:38:10;;;;;;;8.23;5.10;;;-1.40;99.90;;;;;;5114551;28;20993;-79
2021/03/20 00:40:36;;;;;;;9.17;5.30;;;-1.30;99.90;;;;;;5114540;28;20797;-79
2021/03/20 00:43:03;;;;;;;10.83;5.10;;;-1.30;99.90;;;;;;5115729;28;20459;-79
2021/03/20 00:45:29;;;;;;;9.93;5.27;;;-1.30;99.90;;;;;;5115217;28;20408;-79
2021/03/20 00:48:03;;;;;;;7.53;5.13;;;-1.30;99.90;;;;;;5114670;28;20490;-79
2021/03/20 00:50:30;;;;;;;8.17;5.07;;;-1.20;99.90;;;;;;5114670;28;20471;-79
2021/03/20 00:52:56;;;;;;;10.47;5.87;;;-1.20;99.90;;;;;;5114438;28;20383;-79
2021/03/20 00:55:23;;;;;;;6.97;5.63;;;-1.20;99.90;;;;;;5114608;28;20522;-79
2021/03/20 00:57:49;;;;;;;9.00;5.33;;;-1.10;99.90;;;;;;5116949;28;20434;-85
2021/03/20 01:00:20;;;;;;;9.23;5.20;;;-1.10;99.90;;;;;;5118378;28;20430;-84
2021/03/20 01:02:46;;;;;;;10.10;6.17;;;-1.00;99.90;;;;;;5116066;28;20412;-85
2021/03/20 01:05:14;;;;;;;8.97;5.57;;;-1.00;99.90;;;;;;5114818;28;20383;-84
2021/03/20 01:07:42;;;;;;;7.50;4.50;;;-1.00;99.90;;;;;;5114037;28;20976;-85
2021/03/20 01:10:10;;;;;;;10.17;6.00;;;-1.00;99.90;;;;;;5114337;28;20421;-85
2021/03/20 01:12:38;;;;;;;8.00;5.73;;;-1.00;99.90;;;;;;5114143;28;20521;-85
2021/03/20 01:15:05;;;;;;;7.10;5.57;;;-1.00;99.90;;;;;;5114113;28;20850;-85
2021/03/20 01:17:32;;;;;;;6.33;5.63;;;-1.00;99.90;;;;;;5114170;28;20434;-85
2021/03/20 01:19:58;;;;;;;8.40;5.20;;;-1.00;99.90;;;;;;5114225;28;20439;-85
2021/03/20 01:22:24;;;;;;;9.50;5.23;;;-1.00;99.90;;;;;;5114102;28;20970;-85
2021/03/20 01:24:51;;;;;;;8.77;5.87;;;-1.00;99.90;;;;;;5114137;28;20435;-85
2021/03/20 01:27:17;;;;;;;10.10;5.97;;;-1.00;99.90;;;;;;5113798;28;20487;-85
2021/03/20 01:29:44;;;;;;;12.13;5.33;;;-1.00;99.90;;;;;;5113765;28;20429;-85
2021/03/20 01:32:10;;;;;;;7.93;5.00;;;-1.00;99.90;;;;;;5113927;28;20429;-85
2021/03/20 01:34:37;;;;;;;9.47;5.57;;;-1.00;99.90;;;;;;5114041;28;20420;-85
2021/03/20 01:37:03;;;;;;;9.33;5.20;;;-1.10;99.90;;;;;;5113912;28;20459;-85
2021/03/20 01:39:29;;;;;;;10.33;5.40;;;-1.10;99.90;;;;;;5114198;28;20447;-86
2021/03/20 01:41:55;;;;;;;8.20;5.47;;;-1.10;99.90;;;;;;5114095;28;20970;-85
2021/03/20 01:44:24;;;;;;;8.53;5.43;;;-1.10;99.90;;;;;;5114717;28;20710;-85
2021/03/20 01:46:53;;;;;;;10.00;5.33;;;-1.10;99.90;;;;;;5113626;28;20465;-86
2021/03/20 01:49:24;;;;;;;7.33;4.73;;;-1.10;99.90;;;;;;5113773;28;20796;-85
2021/03/20 01:51:57;;;;;;;8.33;5.60;;;-1.10;99.90;;;;;;5113868;28;20406;-85
2021/03/20 01:54:26;;;;;;;9.90;5.77;;;-1.10;99.90;;;;;;5113895;28;20439;-85
2021/03/20 01:56:53;;;;;;;10.27;5.70;;;-1.00;99.90;;;;;;5113421;28;20464;-85
2021/03/20 01:59:20;;;;;;;8.10;5.27;;;-1.00;99.90;;;;;;5113872;28;20794;-85
2021/03/20 02:01:46;;;;;;;8.27;5.40;;;-0.90;99.90;;;;;;5113777;28;20494;-85
2021/03/20 02:04:13;;;;;;;9.57;5.13;;;-0.90;99.90;;;;;;5113979;28;20492;-85
2021/03/20 02:06:39;;;;;;;8.27;5.00;;;-0.80;99.90;;;;;;5113867;28;20458;-85
2021/03/20 02:09:08;;;;;;;8.60;5.70;;;-0.80;99.90;;;;;;5113614;28;20935;-85
2021/03/20 02:11:40;;;;;;;10.70;6.17;;;-0.70;99.90;;;;;;5113932;28;20526;-85
2021/03/20 02:14:18;;;;;;;8.13;4.97;;;-0.70;99.90;;;;;;5113963;28;20450;-85
2021/03/20 02:16:51;;;;;;;6.50;4.90;;;-0.50;99.90;;;;;;5113864;28;20461;-85
2021/03/20 02:19:44;;;;;;;10.20;4.70;;;-0.50;99.90;;;;;;5113881;28;20427;-85
2021/03/20 02:22:15;;;;;;;9.33;4.93;;;-0.60;99.90;;;;;;5113914;28;20451;-85
2021/03/20 02:25:09;;;;;;;9.33;5.40;;;-0.60;99.90;;;;;;5113546;28;20940;-86
2021/03/20 02:28:08;;;;;;;8.07;5.50;;;-0.60;99.90;;;;;;5113399;28;20986;-86
2021/03/20 02:31:01;;;;;;;8.97;5.20;;;-0.60;99.90;;;;;;5113816;28;20926;-79
2021/03/20 02:33:35;;;;;;;10.03;5.73;;;-0.60;99.90;;;;;;5113369;28;20474;-79
2021/03/20 02:36:11;;;;;;;11.13;5.43;;;-0.60;99.90;;;;;;5113317;28;20887;-79
2021/03/20 02:38:45;;;;;;;8.23;5.43;;;-0.60;99.90;;;;;;5115576;28;20427;-79
2021/03/20 02:41:21;;;;;;;8.20;5.00;;;-0.60;99.90;;;;;;5117030;28;20814;-79
2021/03/20 02:43:57;;;;;;;10.07;5.20;;;-0.50;99.90;;;;;;5117466;28;20439;-79
2021/03/20 02:46:27;;;;;;;12.27;5.47;;;-0.50;99.90;;;;;;5117320;28;20481;-79
2021/03/20 02:49:03;;;;;;;8.33;5.87;;;-0.50;99.90;;;;;;5117015;28;20995;-80
2021/03/20 02:51:35;;;;;;;7.60;5.80;;;-0.50;99.90;;;;;;5117166;28;20411;-80
2021/03/20 02:54:06;;;;;;;7.00;5.03;;;-0.40;99.90;;;;;;5116884;28;20431;-80
2021/03/20 02:56:40;;;;;;;7.07;5.40;;;-0.40;99.90;;;;;;5116612;28;20479;-79
2021/03/20 02:59:10;;;;;;;8.03;5.53;;;-0.40;99.90;;;;;;5117151;28;20456;-80
2021/03/20 03:01:38;;;;;;;8.50;5.47;;;-0.30;99.90;;;;;;5116668;28;20767;-80
2021/03/20 03:04:07;;;;;;;9.60;5.93;;;-0.30;99.90;;;;;;5116720;28;20427;-79
2021/03/20 03:06:40;;;;;;;7.23;4.77;;;-0.30;99.90;;;;;;5116973;28;20948;-80
2021/03/20 03:09:12;;;;;;;8.47;5.50;;;-0.30;99.90;;;;;;5117608;28;20440;-79
2021/03/20 03:11:45;;;;;;;7.00;5.10;;;-0.40;99.90;;;;;;5116502;28;20406;-80
2021/03/20 03:14:15;;;;;;;8.50;5.43;;;-0.30;99.90;;;;;;5116860;28;20431;-80
2021/03/20 03:16:46;;;;;;;7.30;5.07;;;-0.40;99.90;;;;;;5116342;28;20989;-79
2021/03/20 03:19:17;;;;;;;8.03;4.90;;;-0.40;99.90;;;;;;5116525;28;20429;-79
2021/03/20 03:21:47;;;;;;;10.20;6.30;;;-0.40;99.90;;;;;;5116379;28;20917;-80
2021/03/20 03:24:18;;;;;;;9.07;6.00;;;-0.40;99.90;;;;;;5117568;28;20431;-79
2021/03/20 03:26:49;;;;;;;6.87;5.13;;;-0.40;99.90;;;;;;5116415;28;20483;-80
2021/03/20 03:29:19;;;;;;;10.30;5.07;;;-0.40;99.90;;;;;;5116272;28;20813;-80
2021/03/20 03:31:53;;;;;;;10.50;6.30;;;-0.30;99.90;;;;;;5116388;28;20453;-79
2021/03/20 03:34:24;;;;;;;9.07;5.73;;;-0.40;99.90;;;;;;5116434;28;20428;-80
2021/03/20 03:36:56;;;;;;;9.63;5.00;;;-0.40;99.90;;;;;;5115998;28;21018;-80
2021/03/20 03:39:29;;;;;;;9.00;6.13;;;-0.40;99.90;;;;;;5116296;28;20492;-80
2021/03/20 03:41:55;;;;;;;11.53;6.50;;;-0.40;99.90;;;;;;5116431;28;20425;-80
2021/03/20 03:44:21;;;;;;;9.27;6.00;;;-0.30;99.90;;;;;;5116171;28;20503;-80
2021/03/20 03:46:49;;;;;;;6.93;5.00;;;-0.30;99.90;;;;;;5116024;28;20487;-79
2021/03/20 03:49:18;;;;;;;10.43;6.40;;;-0.30;99.90;;;;;;5115358;28;20827;-80
2021/03/20 03:51:46;;;;;;;9.50;6.80;;;-0.30;99.90;;;;;;5115718;28;20451;-80
2021/03/20 03:54:13;;;;;;;8.33;6.13;;;-0.30;99.90;;;;;;5116002;28;20449;-80
2021/03/20 03:57:06;;;;;;;10.83;6.50;;;-0.30;99.90;;;;;;5115296;28;20486;-80
2021/03/20 03:59:46;;;;;;;12.50;6.30;;;-0.20;99.90;;;;;;5101891;28;20463;-80
2021/03/20 04:02:17;;;;;;;12.57;6.93;;;-0.20;99.90;;;;;;5115783;28;20794;-80
2021/03/20 04:04:58;;;;;;;9.33;6.60;;;-0.20;99.90;;;;;;5115491;28;20435;-80
2021/03/20 04:07:51;;;;;;;9.70;5.63;;;-0.20;99.90;;;;;;5115642;28;20490;-80
2021/03/20 04:10:26;;;;;;;8.70;5.90;;;-0.20;99.90;;;;;;5116096;28;20435;-87
2021/03/20 04:12:59;;;;;;;14.03;7.57;;;-0.20;99.90;;;;;;5116276;28;20543;-87
2021/03/20 04:15:37;;;;;;;7.33;6.17;;;-0.10;99.90;;;;;;5116225;28;20855;-87
2021/03/20 04:18:10;;;;;;;11.37;6.60;;;-0.20;99.90;;;;;;5116164;28;20425;-87
2021/03/20 04:20:44;;;;;;;11.30;6.70;;;-0.10;99.90;;;;;;5115938;28;20403;-88
2021/03/20 04:23:17;;;;;;;9.67;6.23;;;-0.20;99.90;;;;;;5116038;28;20463;-87
2021/03/20 04:25:51;;;;;;;9.20;6.50;;;-0.20;99.90;;;;;;5116191;28;20447;-87
2021/03/20 04:28:29;;;;;;;11.30;6.70;;;-0.30;99.90;;;;;;5115788;28;20453;-87
2021/03/20 04:31:04;;;;;;;8.30;6.40;;;-0.20;99.90;;;;;;5115808;28;20417;-87
2021/03/20 04:33:41;;;;;;;10.67;6.50;;;-0.30;99.90;;;;;;5115544;28;20461;-86
2021/03/20 04:36:13;;;;;;;10.73;5.97;;;-0.30;99.90;;;;;;5115138;28;20409;-80
2021/03/20 04:38:41;;;;;;;9.37;6.20;;;-0.30;99.90;;;;;;5114881;28;20903;-80
2021/03/20 04:41:09;;;;;;;11.17;6.73;;;-0.40;99.90;;;;;;5115041;28;20417;-80
2021/03/20 04:43:39;;;;;;;10.00;7.40;;;-0.40;99.90;;;;;;5114696;28;20986;-80
2021/03/20 04:46:08;;;;;;;11.17;7.10;;;-0.40;99.90;;;;;;5114607;28;20418;-80
2021/03/20 04:48:37;;;;;;;13.93;7.23;;;-0.40;99.90;;;;;;5114624;28;20973;-80
2021/03/20 04:51:09;;;;;;;9.80;7.37;;;-0.40;99.90;;;;;;5114886;28;20447;-80
2021/03/20 04:53:36;;;;;;;14.63;6.40;;;-0.40;99.90;;;;;;5114565;28;20933;-80
2021/03/20 04:56:08;;;;;;;12.03;6.67;;;-0.30;99.90;;;;;;5114425;28;20548;-79
2021/03/20 04:58:44;;;;;;;13.07;7.77;;;-0.20;99.90;;;;;;5115609;28;20402;-80
2021/03/20 05:01:19;;;;;;;9.07;6.00;;;-0.20;99.90;;;;;;5113982;28;20409;-80
2021/03/20 05:03:50;;;;;;;11.50;7.40;;;-0.30;99.90;;;;;;5114681;28;20405;-80
2021/03/20 05:06:22;;;;;;;10.90;6.93;;;-0.40;99.90;;;;;;5114634;28;20431;-79
2021/03/20 05:08:55;;;;;;;8.97;6.43;;;-0.50;99.90;;;;;;5114575;28;20427;-80
2021/03/20 05:11:28;;;;;;;9.07;6.53;;;-0.50;99.90;;;;;;5114223;28;20906;-85
2021/03/20 05:14:00;;;;;;;10.00;6.60;;;-0.70;99.90;;;;;;5114605;28;20848;-85
2021/03/20 05:16:39;;;;;;;14.53;7.23;;;-0.80;99.90;;;;;;5114498;28;20446;-85
2021/03/20 05:19:07;;;;;;;10.57;7.07;;;-0.80;99.90;;;;;;5114571;28;20426;-85
2021/03/20 05:21:35;;;;;;;12.10;7.30;;;-0.80;99.90;;;;;;5114499;28;20451;-85
2021/03/20 05:24:02;;;;;;;11.37;6.93;;;-0.80;99.90;;;;;;5114375;28;20455;-85
2021/03/20 05:26:32;;;;;;;13.43;7.43;;;-0.80;99.90;;;;;;5114004;28;21008;-85
2021/03/20 05:28:58;;;;;;;13.10;6.73;;;-0.80;99.90;;;;;;5114305;28;20508;-78
2021/03/20 05:31:25;;;;;;;14.87;7.30;;;-0.80;99.90;;;;;;5114253;28;20429;-78
2021/03/20 05:33:52;;;;;;;11.23;7.50;;;-0.70;99.90;;;;;;5114069;28;20473;-78
2021/03/20 05:36:19;;;;;;;13.27;6.77;;;-0.80;99.90;;;;;;5113721;28;20447;-78
2021/03/20 05:38:47;;;;;;;10.93;7.67;;;-0.80;99.90;;;;;;5115295;28;20454;-87
2021/03/20 05:41:33;;;;;;;10.80;7.03;;;-0.80;99.90;;;;;;5114966;28;20414;-87
2021/03/20 05:44:11;;;;;;;11.27;7.30;;;-0.90;99.90;;;;;;5114666;28;20807;-87
2021/03/20 05:46:43;;;;;;;12.33;7.50;;;-0.80;99.90;;;;;;5114092;28;20475;-87
2021/03/20 05:49:39;;;;;;;9.10;6.17;;;-0.90;99.90;;;;;;5114755;28;20805;-87
2021/03/20 05:52:29;;;;;;;12.87;6.90;;;-0.90;99.90;;;;;;5114716;28;20896;-87
2021/03/20 05:55:22;;;;;;;8.73;6.40;;;-0.90;99.90;;;;;;5113892;28;20431;-87
2021/03/20 05:57:59;;;;;;;11.03;6.87;;;-0.90;99.90;;;;;;5114299;28;20518;-87
2021/03/20 06:00:34;;;;;;;7.80;6.30;;;-0.90;99.90;;;;;;5114406;28;20789;-87
2021/03/20 06:03:26;;;;;;;12.27;6.67;;;-0.90;99.90;;;;;;5114259;28;20431;-87
2021/03/20 06:05:55;;;;;;;8.57;5.90;;;-0.80;99.90;;;;;;5103219;28;20473;-85
2021/03/20 06:08:38;;;;;;;9.23;6.40;;;-0.70;99.90;;;;;;5113783;28;20527;-85
2021/03/20 06:11:11;;;;;;;10.90;6.87;;;-0.70;99.90;;;;;;5113847;28;20410;-84
2021/03/20 06:13:56;;;;;;;10.00;6.30;;;-0.60;99.90;;;;;;5117783;28;20438;-85
2021/03/20 06:16:30;;;;;;;7.03;5.73;;;-0.40;99.90;;;;;;5117637;28;20427;-85
2021/03/20 06:19:13;;;;;;;7.63;6.10;;;-0.30;99.90;;;;;;5117622;28;20967;-85
2021/03/20 06:21:55;;;;;;;10.07;6.10;;;-0.20;99.90;;;;;;5117939;28;20945;-84
2021/03/20 06:24:52;;;;;;;10.13;6.40;;;-0.10;99.90;;;;;;5117900;28;20458;-85
2021/03/20 06:27:22;;;;;;;10.07;5.87;;;0.10;99.90;;;;;;5117676;28;20479;-85
2021/03/20 06:29:58;;;;;;;8.53;5.67;;;0.20;99.90;;;;;;5117838;28;20427;-85
2021/03/20 06:32:30;;;;;;;8.57;5.60;;;0.30;99.90;;;;;;5117759;28;20426;-85
2021/03/20 06:35:02;;;;;;;6.47;5.70;;;0.30;99.90;;;;;;5117774;28;20397;-85
2021/03/20 06:37:32;;;;;;;8.47;4.90;;;0.40;99.90;;;;;;5117497;28;20474;-85
2021/03/20 06:40:04;;;;;;;8.03;5.40;;;0.40;99.90;;;;;;5117595;28;20435;-85
2021/03/20 06:42:34;;;;;;;9.53;6.00;;;0.60;99.90;;;;;;5117558;28;20479;-85
2021/03/20 06:45:02;;;;;;;9.03;6.10;;;0.70;99.90;;;;;;5117525;28;20427;-85
2021/03/20 06:47:34;;;;;;;8.03;6.00;;;0.80;99.90;;;;;;5117216;28;20482;-85
2021/03/20 06:50:04;;;;;;;9.07;5.93;;;0.80;99.90;;;;;;5117678;28;20455;-85
2021/03/20 06:52:33;;;;;;;6.80;5.17;;;0.90;99.90;;;;;;5118116;28;20435;-85
2021/03/20 06:55:05;;;;;;;7.40;5.90;;;1.00;99.90;;;;;;5117074;28;20451;-85
2021/03/20 06:57:32;;;;;;;7.20;5.30;;;1.20;99.90;;;;;;5117164;28;20462;-85
2021/03/20 07:00:14;;;;;;;9.13;5.47;;;1.20;99.90;;;;;;5117204;28;20443;-85
2021/03/20 07:02:52;;;;;;;7.17;4.67;;;1.30;99.90;;;;;;5116946;28;20412;-85
2021/03/20 07:05:25;;;;;;;5.50;4.50;;;1.30;99.90;;;;;;5117263;28;20427;-85
2021/03/20 07:08:07;;;;;;;6.87;4.37;;;1.20;99.90;;;;;;5116989;28;20479;-85
2021/03/20 07:10:38;;;;;;;6.77;5.07;;;1.30;99.90;;;;;;5116858;28;20414;-86
2021/03/20 07:13:15;;;;;;;6.63;5.00;;;1.40;99.90;;;;;;5117137;28;20438;-85
2021/03/20 07:15:41;;;;;;;7.50;4.90;;;1.60;99.90;;;;;;5117074;28;20460;-86
2021/03/20 07:18:33;;;;;;;8.17;4.87;;;1.70;99.90;;;;;;5118995;28;20484;-86
2021/03/20 07:21:18;;;;;;;4.80;3.87;;;1.90;99.90;;;;;;5131579;28;20462;-86
2021/03/20 07:23:52;;;;;;;4.70;3.97;;;2.10;99.90;;;;;;5121713;28;20430;-86
2021/03/20 07:26:19;;;;;;;5.97;3.83;;;2.10;99.90;;;;;;5119258;28;20431;-86
2021/03/20 07:28:49;;;;;;;4.30;3.27;;;2.10;99.90;;;;;;5117666;28;20475;-86
2021/03/20 07:31:16;;;;;;;5.33;3.73;;;2.30;99.90;;;;;;5116916;28;20432;-85
2021/03/20 07:33:47;;;;;;;5.80;3.83;;;2.40;99.90;;;;;;5116749;28;20836;-86
2021/03/20 07:36:29;;;;;;;7.20;3.50;;;2.70;99.90;;;;;;5116508;28;20450;-86
2021/03/20 07:39:24;;;;;;;3.13;2.70;;;2.80;99.90;;;;;;5116515;28;20518;-85
2021/03/20 07:41:56;;;;;;;4.43;2.37;;;2.60;99.90;;;;;;5069214;28;20455;-85
2021/03/20 07:44:24;;;;;;;3.17;2.90;;;2.70;99.90;;;;;;5116353;28;20423;-85
2021/03/20 07:46:51;;;;;;;3.87;2.60;;;2.70;99.90;;;;;;5115890;28;20969;-85
2021/03/20 07:49:29;;;;;;;4.80;3.00;;;2.70;99.90;;;;;;5116297;28;20439;-85
2021/03/20 07:51:57;;;;;;;5.33;3.30;;;2.90;99.90;;;;;;5116274;28;20435;-85
2021/03/20 07:54:31;;;;;;;7.30;2.90;;;2.90;99.90;;;;;;5116210;28;20435;-85
2021/03/20 07:57:09;;;;;;;3.93;3.43;;;2.70;99.90;;;;;;5115917;28;20483;-85
2021/03/20 07:59:43;;;;;;;3.10;2.80;;;2.70;99.90;;;;;;5115981;28;20447;-85
2021/03/20 08:02:25;;;;;;;2.97;2.70;;;2.70;99.90;;;;;;5115941;28;20445;-84
2021/03/20 08:04:55;;;;;;;3.80;2.67;;;2.80;99.90;;;;;;5115695;28;20925;-84
2021/03/20 08:07:42;;;;;;;2.70;2.40;;;2.90;99.90;;;;;;5115443;28;20470;-85
2021/03/20 08:10:28;;;;;;;3.90;2.83;;;2.90;99.90;;;;;;5115582;28;20456;-84
2021/03/20 08:13:01;;;;;;;3.00;2.47;;;2.90;99.90;;;;;;5115527;28;20971;-85
2021/03/20 08:15:31;;;;;;;3.40;2.30;;;2.80;99.90;;;;;;5115773;28;20476;-85
2021/03/20 08:17:59;;;;;;;3.67;2.43;;;2.80;99.90;;;;;;5115595;28;20459;-85
2021/03/20 08:20:27;;;;;;;3.13;2.67;;;2.70;99.90;;;;;;5115505;28;20812;-85
2021/03/20 08:23:10;;;;;;;4.33;3.07;;;2.70;99.90;;;;;;5115223;28;20946;-85
2021/03/20 08:25:49;;;;;;;4.17;2.70;;;2.70;99.90;;;;;;5115357;28;20489;-85
2021/03/20 08:28:32;;;;;;;2.33;2.13;;;2.70;99.90;;;;;;5115080;28;20482;-85
2021/03/20 08:31:09;;;;;;;3.23;1.80;;;2.60;97.40;;;;;;5115244;28;20407;-85
2021/03/20 08:33:53;;;;;;;2.00;1.90;;;2.40;95.80;;;;;;5115114;28;20463;-85
2021/03/20 08:36:32;;;;;;;1.83;1.73;;;2.10;96.10;;;;;;5113861;28;20944;-84
2021/03/20 08:39:15;;;;;;;2.53;2.37;;;2.10;97.10;;;;;;5115284;28;20472;-84
2021/03/20 08:41:51;;;;;;;4.40;2.70;;;2.00;99.80;;;;;;5115195;28;20427;-85
2021/03/20 08:44:46;;;;;;;1.93;1.73;;;2.20;98.70;;;;;;5115314;28;20439;-84
2021/03/20 08:47:42;;;;;;;2.10;1.93;;;2.40;96.60;;;;;;5115129;28;20475;-85
2021/03/20 08:50:19;;;;;;;2.13;1.77;;;2.60;94.10;;;;;;5115596;28;20439;-85
2021/03/20 08:52:59;;;;;;;2.03;1.83;;;2.70;93.80;;;;;;5115535;28;20802;-89
2021/03/20 08:55:55;;;;;;;1.97;1.80;;;2.80;94.80;;;;;;5114791;28;21008;-88
2021/03/20 08:58:32;;;;;;;1.83;1.73;;;3.00;92.00;;;;;;5115651;28;20458;-88
2021/03/20 09:01:03;;;;;;;3.93;2.10;;;3.10;91.20;;;;;;5114908;28;20427;-83
2021/03/20 09:03:35;;;;;;;1.90;1.80;;;3.00;89.80;;;;;;5115688;28;20427;-86
2021/03/20 09:06:09;;;;;;;2.70;1.57;;;2.90;90.80;;;;;;5115294;28;20442;-89
2021/03/20 09:08:40;;;;;;;1.90;1.70;;;2.70;89.30;;;;;;5116036;28;20471;-90
2021/03/20 09:11:13;;;;;;;1.60;1.50;;;2.70;89.50;;;;;;5115625;28;20476;-85
2021/03/20 09:13:44;;;;;;;3.20;1.87;;;2.60;85.80;;;;;;5114921;28;20431;-85
2021/03/20 09:16:33;;;;;;;1.77;1.67;;;3.20;87.30;;;;;;5114289;28;20431;-85
2021/03/20 09:19:01;;;;;;;2.60;2.00;;;3.70;83.90;;;;;;5114993;28;20477;-86
2021/03/20 09:21:28;;;;;;;2.23;2.07;;;5.00;78.40;;;;;;5114207;28;20472;-85
2021/03/20 09:23:55;;;;;;;1.97;1.73;;;5.80;73.50;;;;;;5114523;28;20509;-85
2021/03/20 09:26:40;;;;;;;2.30;2.10;;;6.00;68.20;;;;;;5113979;28;20451;-86
2021/03/20 09:29:18;;;;;;;1.93;1.73;;;6.70;62.00;;;;;;5117728;28;20501;-85
2021/03/20 09:32:07;;;;;;;2.27;2.13;;;8.20;62.20;;;;;;5116608;28;20762;-86
2021/03/20 09:34:51;;;;;;;2.40;2.20;;;9.90;55.90;;;;;;5115082;28;20471;-86
2021/03/20 09:37:57;;;;;;;2.80;1.80;;;11.60;49.70;;;;;;5113219;28;20475;-86
2021/03/20 09:40:55;;;;;;;1.70;1.60;;;12.70;44.30;;;;;;5114496;28;20431;-87
2021/03/20 09:43:36;;;;;;;2.10;1.93;;;12.90;42.80;;;;;;5114279;28;20427;-87
2021/03/20 09:46:51;;;;;;;1.70;1.60;;;13.80;41.30;;;;;;5114798;28;20456;-87
2021/03/20 09:49:57;;;;;;;2.20;2.00;;;13.50;41.20;;;;;;5114226;28;20423;-86
2021/03/20 09:52:52;;;;;;;2.60;2.40;;;12.60;40.50;;;;;;5114942;28;20769;-87
2021/03/20 09:55:43;;;;;;;3.30;2.50;;;12.00;42.70;;;;;;5066439;28;20494;-86
2021/03/20 09:58:40;;;;;;;2.73;2.30;;;10.60;45.40;;;;;;5113968;28;20534;-86
2021/03/20 10:01:17;;;;;;;4.20;3.10;;;9.80;48.70;;;;;;5117139;28;20442;-86
2021/03/20 10:04:11;;;;;;;2.50;2.30;;;9.10;51.20;;;;;;5115537;28;20781;-86
2021/03/20 10:06:40;;;;;;;2.70;2.50;;;9.20;52.90;;;;;;5093585;28;20985;-87
2021/03/20 10:09:25;;;;;;;3.73;2.50;;;10.30;53.30;;;;;;5114237;28;20532;-83
2021/03/20 10:12:21;;;;;;;3.23;2.07;;;11.60;51.80;;;;;;5113746;28;20427;-83
2021/03/20 10:15:02;;;;;;;2.43;2.33;;;12.60;49.90;;;;;;5113805;28;20446;-83
2021/03/20 10:17:30;;;;;;;2.80;2.60;;;13.10;44.00;;;;;;5113701;28;20451;-83
2021/03/20 10:20:13;;;;;;;2.77;2.20;;;12.20;45.10;;;;;;5114365;28;20446;-83
2021/03/20 10:22:50;;;;;;;2.57;2.37;;;12.10;44.20;;;;;;5113405;28;20434;-82
2021/03/20 10:25:16;;;;;;;2.60;2.20;;;11.70;42.90;;;;;;5113652;28;20426;-82
2021/03/20 10:27:48;;;;;;;2.10;2.00;;;11.70;45.40;;;;;;5113491;28;20491;-82
2021/03/20 10:30:20;;;;;;;2.37;2.20;;;11.50;43.20;;;;;;5113609;28;20431;-82
2021/03/20 10:32:56;;;;;;;2.03;1.87;;;11.10;45.70;;;;;;5113874;28;20430;-82
2021/03/20 10:35:23;;;;;;;2.90;2.40;;;10.80;44.40;;;;;;5113221;28;20921;-82
2021/03/20 10:37:49;;;;;;;2.77;2.17;;;10.70;47.30;;;;;;5113404;28;20466;-82
2021/03/20 10:40:23;;;;;;;2.60;2.50;;;10.20;46.70;;;;;;5113226;28;20922;-82
2021/03/20 10:42:55;;;;;;;3.20;2.43;;;9.40;47.40;;;;;;5113163;28;20426;-81
2021/03/20 10:45:29;;;;;;;5.57;2.23;;;9.00;50.20;;;;;;5113470;28;20428;-81
2021/03/20 10:48:02;;;;;;;2.30;2.10;;;9.70;48.70;;;;;;5113277;28;20486;-81
2021/03/20 10:50:32;;;;;;;2.40;2.20;;;10.20;47.70;;;;;;5113400;28;20427;-82
2021/03/20 10:53:02;;;;;;;2.23;2.13;;;10.00;44.60;;;;;;5113052;28;20921;-82
2021/03/20 10:55:36;;;;;;;2.50;2.30;;;9.40;47.90;;;;;;5112892;28;20478;-82
2021/03/20 10:58:05;;;;;;;3.43;2.50;;;10.20;49.00;;;;;;5113347;28;20463;-82
2021/03/20 11:00:41;;;;;;;2.00;1.90;;;11.10;47.60;;;;;;5116423;28;20439;-82
2021/03/20 11:03:10;;;;;;;2.27;2.10;;;12.10;43.70;;;;;;5117137;28;20431;-82
2021/03/20 11:05:37;;;;;;;2.40;2.20;;;12.90;40.70;;;;;;5117037;28;20427;-82
2021/03/20 11:08:12;;;;;;;2.40;2.20;;;13.50;41.00;;;;;;5116838;28;20498;-82
2021/03/20 11:10:41;;;;;;;2.30;2.20;;;13.60;38.70;;;;;;5116646;28;20438;-82
2021/03/20 11:13:09;;;;;;;2.77;2.20;;;13.40;38.60;;;;;;5116928;28;20447;-81
2021/03/20 11:15:38;;;;;;;3.27;2.30;;;12.20;41.30;;;;;;5116881;28;20435;-81
2021/03/20 11:18:14;;;;;;;3.20;2.60;;;11.30;40.00;;;;;;5116751;28;20466;-82
2021/03/20 11:20:44;;;;;;;2.73;2.53;;;10.50;43.30;;;;;;5116532;28;20497;-81
2021/03/20 11:23:27;;;;;;;3.03;2.83;;;10.00;43.90;;;;;;5116356;28;20925;-81
2021/03/20 11:25:54;;;;;;;2.23;2.13;;;9.60;47.50;;;;;;5116350;28;20956;-81
2021/03/20 11:28:29;;;;;;;2.50;2.40;;;8.80;47.30;;;;;;5116429;28;20483;-81
2021/03/20 11:30:58;;;;;;;2.10;2.00;;;8.30;46.30;;;;;;5116272;28;20438;-81
2021/03/20 11:33:26;;;;;;;3.23;2.63;;;7.80;48.50;;;;;;5116479;28;20426;-81
2021/03/20 11:35:55;;;;;;;2.33;2.23;;;7.30;48.80;;;;;;5116496;28;20428;-81
2021/03/20 11:38:23;;;;;;;3.30;2.60;;;6.80;51.30;;;;;;5117225;28;20591;-91
2021/03/20 11:41:21;;;;;;;2.50;2.27;;;6.60;49.80;;;;;;5118027;28;20427;-91
2021/03/20 11:43:50;;;;;;;3.90;2.83;;;6.30;50.70;;;;;;5116553;28;20443;-91
2021/03/20 11:46:20;;;;;;;3.57;2.53;;;6.30;51.60;;;;;;5117058;28;20552;-80
2021/03/20 11:48:54;;;;;;;2.50;2.30;;;6.20;49.90;;;;;;5116153;28;20463;-90
2021/03/20 11:51:24;;;;;;;2.30;2.10;;;6.10;50.00;;;;;;5116736;28;20434;-84
2021/03/20 11:53:54;;;;;;;2.63;2.17;;;6.00;49.70;;;;;;5116179;28;20446;-85
2021/03/20 11:56:24;;;;;;;2.87;2.60;;;6.00;50.60;;;;;;5115914;28;20521;-81
2021/03/20 11:58:53;;;;;;;6.73;2.30;;;6.00;52.90;;;;;;5115923;28;20443;-91
2021/03/20 12:01:29;;;;;;;2.00;1.80;;;6.10;52.50;;;;;;5116796;28;20447;-81
2021/03/20 12:03:57;;;;;;;2.97;2.10;;;6.30;51.40;;;;;;5117511;28;20517;-84
2021/03/20 12:06:29;;;;;;;3.53;2.80;;;6.30;48.80;;;;;;5117538;28;20434;-79
2021/03/20 12:08:57;;;;;;;3.43;2.60;;;6.10;51.20;;;;;;5116893;28;20479;-90
2021/03/20 12:11:56;;;;;;;2.20;2.10;;;5.80;49.70;;;;;;5115921;28;20454;-85
2021/03/20 12:14:33;;;;;;;5.13;2.43;;;5.60;52.10;;;;;;5115902;28;20436;-89
2021/03/20 12:17:05;;;;;;;3.03;2.10;;;5.40;52.00;;;;;;5115648;28;20471;-80
2021/03/20 12:19:33;;;;;;;6.10;2.50;;;5.20;51.10;;;;;;5105650;28;20497;-79
2021/03/20 12:22:05;;;;;;;3.00;2.70;;;5.30;51.80;;;;;;5108750;28;20455;-79
2021/03/20 12:24:37;;;;;;;3.37;3.07;;;5.40;50.10;;;;;;5115343;28;20443;-79
2021/03/20 12:27:29;;;;;;;2.80;2.60;;;5.40;51.10;;;;;;5114777;28;20969;-79
2021/03/20 12:30:22;;;;;;;2.33;2.13;;;5.40;52.20;;;;;;5115265;28;20432;-79
2021/03/20 12:32:50;;;;;;;2.23;2.03;;;5.50;51.20;;;;;;5114963;28;20439;-79
2021/03/20 12:35:38;;;;;;;4.67;2.33;;;5.50;50.40;;;;;;5115233;28;20464;-79
2021/03/20 12:38:12;;;;;;;2.73;1.90;;;5.30;50.20;;;;;;5114758;28;20977;-79
2021/03/20 12:40:40;;;;;;;2.80;2.10;;;5.30;49.90;;;;;;5114983;28;20845;-79
2021/03/20 12:43:16;;;;;;;2.30;2.10;;;5.30;52.00;;;;;;5114912;28;20545;-79
2021/03/20 12:45:42;;;;;;;3.00;2.40;;;5.20;50.40;;;;;;5114871;28;20445;-79
2021/03/20 12:48:10;;;;;;;2.10;2.00;;;5.00;49.80;;;;;;5114399;28;20989;-79
2021/03/20 12:50:36;;;;;;;4.00;2.67;;;4.80;52.50;;;;;;5114798;28;20443;-79
2021/03/20 12:53:03;;;;;;;3.97;2.80;;;4.60;50.60;;;;;;5114739;28;20508;-79
2021/03/20 12:55:29;;;;;;;3.67;2.60;;;4.30;51.80;;;;;;5114388;28;20675;-79
2021/03/20 12:57:55;;;;;;;2.63;2.40;;;4.30;52.50;;;;;;5114571;28;20459;-79
2021/03/20 13:00:23;;;;;;;2.87;2.20;;;4.20;54.00;;;;;;5114546;28;20447;-79
2021/03/20 13:02:49;;;;;;;2.77;2.10;;;4.50;54.80;;;;;;5114265;28;20969;-79
2021/03/20 13:05:23;;;;;;;2.50;2.30;;;4.70;53.30;;;;;;5114250;28;20919;-79
2021/03/20 13:07:49;;;;;;;5.37;2.73;;;4.60;53.20;;;;;;5114404;28;20483;-79
2021/03/20 13:10:15;;;;;;;3.60;2.43;;;4.50;51.80;;;;;;5114123;28;20451;-79
2021/03/20 13:12:42;;;;;;;3.00;2.60;;;4.40;52.00;;;;;;5114348;28;20820;-79
2021/03/20 13:15:09;;;;;;;4.23;2.40;;;4.20;50.70;;;;;;5114050;28;20420;-79
2021/03/20 13:17:36;;;;;;;2.70;2.50;;;4.10;50.90;;;;;;5114271;28;20458;-79
2021/03/20 13:20:04;;;;;;;2.33;1.93;;;4.10;52.20;;;;;;5113997;28;20435;-84
2021/03/20 13:22:30;;;;;;;3.17;1.90;;;4.10;52.60;;;;;;5113692;28;20781;-79